Time;durP1;ratioP1;P1;durP2;ratioP2;P2;SDS_P1;SDS_P2;PMS_P1;PMS_P2;Temp;Humidity;BMP_temperature;BMP_pressure;BME280_temperature;BME280_humidity;BME280_pressure;Samples;Min_cycle;Max_cycle;Signal;HPM_P1;HPM_P2
2022/11/21 00:00:40;;;;;;;33.63;20.33;;;;;;;;;;5036082;28;20022;-74
2022/11/21 00:03:06;;;;;;;34.63;19.42;;;;;;;;;;5036061;28;20022;-75
2022/11/21 00:05:32;;;;;;;36.10;21.20;;;;;;;;;;5035828;28;20028;-75
2022/11/21 00:07:58;;;;;;;31.63;19.15;;;;;;;;;;5036366;28;20041;-75
2022/11/21 00:10:25;;;;;;;38.67;22.23;;;;;;;;;;5034981;28;20026;-75
2022/11/21 00:12:53;;;;;;;37.53;20.88;;;;;;;;;;5035233;28;20056;-75
2022/11/21 00:15:19;;;;;;;32.28;19.50;;;;;;;;;;5035456;28;20029;-77
2022/11/21 00:17:45;;;;;;;33.20;19.40;;;;;;;;;;5034677;28;20079;-75
2022/11/21 00:20:11;;;;;;;32.60;19.42;;;;;;;;;;5035789;28;20022;-75
2022/11/21 00:22:37;;;;;;;32.60;19.63;;;;;;;;;;5035056;28;20124;-75
2022/11/21 00:25:04;;;;;;;32.83;19.48;;;;;;;;;;5035511;28;20022;-75
2022/11/21 00:27:30;;;;;;;34.38;20.70;;;;;;;;;;5031873;28;20501;-73
2022/11/21 00:29:56;;;;;;;32.83;19.65;;;;;;;;;;5034383;28;20033;-74
2022/11/21 00:32:22;;;;;;;33.22;20.70;;;;;;;;;;5033013;28;20030;-75
2022/11/21 00:34:48;;;;;;;36.42;20.60;;;;;;;;;;5032734;28;20037;-74
2022/11/21 00:37:14;;;;;;;33.20;20.05;;;;;;;;;;5032130;28;20052;-75
2022/11/21 00:39:40;;;;;;;34.70;20.83;;;;;;;;;;5032639;28;20079;-75
2022/11/21 00:42:06;;;;;;;36.75;20.48;;;;;;;;;;5032456;28;20100;-74
2022/11/21 00:44:32;;;;;;;31.88;19.48;;;;;;;;;;5032444;28;20033;-75
2022/11/21 00:46:58;;;;;;;35.72;21.75;;;;;;;;;;5031960;28;20017;-74
2022/11/21 00:49:24;;;;;;;36.70;21.50;;;;;;;;;;5031336;28;20068;-74
2022/11/21 00:51:49;;;;;;;41.97;23.58;;;;;;;;;;5032545;28;20030;-74
2022/11/21 00:54:15;;;;;;;37.58;22.05;;;;;;;;;;5032484;28;20120;-76
2022/11/21 00:56:41;;;;;;;37.33;22.35;;;;;;;;;;5032121;28;20026;-74
2022/11/21 00:59:07;;;;;;;40.47;22.83;;;;;;;;;;5032341;28;20454;-74
2022/11/21 01:01:33;;;;;;;39.10;22.95;;;;;;;;;;5026663;28;20104;-75
2022/11/21 01:03:59;;;;;;;38.97;22.85;;;;;;;;;;5032231;28;20049;-75
2022/11/21 01:06:25;;;;;;;40.47;22.42;;;;;;;;;;5030495;28;20032;-73
2022/11/21 01:08:51;;;;;;;41.20;23.25;;;;;;;;;;5032474;28;20037;-76
2022/11/21 01:11:19;;;;;;;41.58;22.67;;;;;;;;;;5032072;28;20048;-74
2022/11/21 01:13:45;;;;;;;37.72;22.63;;;;;;;;;;5032448;28;20026;-75
2022/11/21 01:16:18;;;;;;;40.70;22.92;;;;;;;;;;5031948;28;20039;-76
2022/11/21 01:18:44;;;;;;;45.78;22.27;;;;;;;;;;5032144;28;20433;-75
2022/11/21 01:21:14;;;;;;;40.33;22.95;;;;;;;;;;5033111;28;20025;-76
2022/11/21 01:23:40;;;;;;;37.58;21.25;;;;;;;;;;5032005;28;20025;-74
2022/11/21 01:26:09;;;;;;;38.50;21.30;;;;;;;;;;5032123;28;20026;-75
2022/11/21 01:28:35;;;;;;;36.72;20.60;;;;;;;;;;5032521;28;20030;-75
2022/11/21 01:31:08;;;;;;;31.45;18.77;;;;;;;;;;5030962;28;20036;-75
2022/11/21 01:33:35;;;;;;;31.43;18.27;;;;;;;;;;5030988;28;20037;-75
2022/11/21 01:36:08;;;;;;;32.25;19.25;;;;;;;;;;5031547;28;20739;-75
2022/11/21 01:38:34;;;;;;;30.73;17.83;;;;;;;;;;5032688;28;20021;-73
2022/11/21 01:41:00;;;;;;;32.20;18.92;;;;;;;;;;5034681;28;20037;-73
2022/11/21 01:43:26;;;;;;;32.80;19.02;;;;;;;;;;5036187;28;20108;-74
2022/11/21 01:45:55;;;;;;;33.83;20.23;;;;;;;;;;5035813;28;20029;-74
2022/11/21 01:48:24;;;;;;;31.20;17.95;;;;;;;;;;5036039;28;20504;-75
2022/11/21 01:50:50;;;;;;;31.70;18.88;;;;;;;;;;5036323;28;20037;-74
2022/11/21 01:53:16;;;;;;;37.33;20.13;;;;;;;;;;5035946;28;20025;-74
2022/11/21 01:55:42;;;;;;;35.25;20.13;;;;;;;;;;5035771;28;20033;-75
2022/11/21 01:58:08;;;;;;;41.05;21.15;;;;;;;;;;5037177;28;20029;-75
2022/11/21 02:00:37;;;;;;;40.13;21.10;;;;;;;;;;5036923;28;20501;-75
2022/11/21 02:03:06;;;;;;;38.72;20.77;;;;;;;;;;5037901;28;20030;-75
2022/11/21 02:05:35;;;;;;;39.08;20.13;;;;;;;;;;5038954;28;20048;-77
2022/11/21 02:08:20;;;;;;;34.40;19.33;;;;;;;;;;5038749;28;20029;-75
2022/11/21 02:10:54;;;;;;;36.10;20.10;;;;;;;;;;5041136;28;20108;-75
2022/11/21 02:13:21;;;;;;;31.02;19.02;;;;;;;;;;5042331;28;20056;-74
2022/11/21 02:15:47;;;;;;;34.38;18.83;;;;;;;;;;5042195;28;20032;-75
2022/11/21 02:18:13;;;;;;;36.28;18.90;;;;;;;;;;5040647;28;20112;-74
2022/11/21 02:20:41;;;;;;;32.13;19.10;;;;;;;;;;5039360;28;20048;-74
2022/11/21 02:23:19;;;;;;;33.22;17.60;;;;;;;;;;5039944;28;20029;-74
2022/11/21 02:25:45;;;;;;;27.60;16.75;;;;;;;;;;5041982;28;20068;-75
2022/11/21 02:28:13;;;;;;;25.85;16.42;;;;;;;;;;5044969;28;20036;-75
2022/11/21 02:30:40;;;;;;;31.08;16.85;;;;;;;;;;5044885;28;20048;-75
2022/11/21 02:33:06;;;;;;;29.05;16.33;;;;;;;;;;5042105;28;20021;-75
2022/11/21 02:35:32;;;;;;;30.38;16.95;;;;;;;;;;5043804;28;20036;-75
2022/11/21 02:38:04;;;;;;;28.23;17.10;;;;;;;;;;5040698;28;20029;-76
2022/11/21 02:40:42;;;;;;;29.42;16.73;;;;;;;;;;5044171;28;20029;-75
2022/11/21 02:43:16;;;;;;;29.27;16.55;;;;;;;;;;5035171;28;20114;-75
2022/11/21 02:45:42;;;;;;;28.50;16.70;;;;;;;;;;5037974;28;20051;-74
2022/11/21 02:48:09;;;;;;;28.77;17.38;;;;;;;;;;5042314;28;20037;-75
2022/11/21 02:50:36;;;;;;;29.70;17.58;;;;;;;;;;5037901;28;20029;-76
2022/11/21 02:53:03;;;;;;;33.85;17.65;;;;;;;;;;5033253;28;20081;-75
2022/11/21 02:55:29;;;;;;;29.10;17.80;;;;;;;;;;5035431;28;20095;-75
2022/11/21 02:57:55;;;;;;;32.22;17.65;;;;;;;;;;5043290;28;20033;-75
2022/11/21 03:00:20;;;;;;;30.73;17.33;;;;;;;;;;5035225;28;20029;-76
2022/11/21 03:02:47;;;;;;;37.08;18.40;;;;;;;;;;5034745;28;20024;-75
2022/11/21 03:05:17;;;;;;;31.83;17.75;;;;;;;;;;5034686;28;20053;-75
2022/11/21 03:07:43;;;;;;;36.22;19.05;;;;;;;;;;5034424;28;20029;-73
2022/11/21 03:10:10;;;;;;;35.88;19.52;;;;;;;;;;5034446;28;20033;-72
2022/11/21 03:12:36;;;;;;;32.17;19.48;;;;;;;;;;5034554;28;20029;-73
2022/11/21 03:15:03;;;;;;;31.02;17.88;;;;;;;;;;5034273;28;20044;-73
2022/11/21 03:17:29;;;;;;;42.63;20.92;;;;;;;;;;5033737;28;20029;-74
2022/11/21 03:19:55;;;;;;;36.92;20.50;;;;;;;;;;5034020;28;20475;-73
2022/11/21 03:22:21;;;;;;;35.05;19.73;;;;;;;;;;5034012;28;20026;-74
2022/11/21 03:24:47;;;;;;;40.42;20.00;;;;;;;;;;5033752;28;20092;-75
2022/11/21 03:27:13;;;;;;;34.40;19.73;;;;;;;;;;5033383;28;20469;-74
2022/11/21 03:29:39;;;;;;;39.95;20.08;;;;;;;;;;5034069;28;20385;-74
2022/11/21 03:32:05;;;;;;;35.08;21.02;;;;;;;;;;5033731;28;20034;-74
2022/11/21 03:34:31;;;;;;;36.42;20.55;;;;;;;;;;5033790;28;20017;-74
2022/11/21 03:36:57;;;;;;;39.10;20.30;;;;;;;;;;5033405;28;20394;-74
2022/11/21 03:39:23;;;;;;;36.08;20.63;;;;;;;;;;5033819;28;20500;-72
2022/11/21 03:41:48;;;;;;;38.85;21.30;;;;;;;;;;5033900;28;20463;-73
2022/11/21 03:44:14;;;;;;;36.55;19.63;;;;;;;;;;5034500;28;20064;-72
2022/11/21 03:46:42;;;;;;;36.83;21.15;;;;;;;;;;5034295;28;20029;-73
2022/11/21 03:49:08;;;;;;;36.42;20.90;;;;;;;;;;5031336;28;20033;-73
2022/11/21 03:51:34;;;;;;;37.47;19.52;;;;;;;;;;5034767;28;20018;-72
2022/11/21 03:54:00;;;;;;;33.35;19.25;;;;;;;;;;5035372;28;20025;-73
2022/11/21 03:56:26;;;;;;;35.22;20.38;;;;;;;;;;5033997;28;20059;-74
2022/11/21 03:58:53;;;;;;;33.20;18.85;;;;;;;;;;5033668;28;20025;-73
2022/11/21 04:01:19;;;;;;;33.80;19.48;;;;;;;;;;5032940;28;20030;-74
2022/11/21 04:03:45;;;;;;;35.85;19.33;;;;;;;;;;5033667;28;20036;-74
2022/11/21 04:06:12;;;;;;;34.63;19.70;;;;;;;;;;5032028;28;20049;-72
2022/11/21 04:08:38;;;;;;;38.13;19.55;;;;;;;;;;5033598;28;20025;-74
2022/11/21 04:11:05;;;;;;;34.75;19.23;;;;;;;;;;5033923;28;20018;-71
2022/11/21 04:13:31;;;;;;;32.20;19.38;;;;;;;;;;5033864;28;20021;-72
2022/11/21 04:15:57;;;;;;;32.97;18.98;;;;;;;;;;5033621;28;20044;-73
2022/11/21 04:18:23;;;;;;;31.38;17.10;;;;;;;;;;5033801;28;20033;-71
2022/11/21 04:20:49;;;;;;;30.50;17.88;;;;;;;;;;5034255;28;20071;-72
2022/11/21 04:23:15;;;;;;;35.35;18.98;;;;;;;;;;5034850;28;20359;-72
2022/11/21 04:25:41;;;;;;;30.40;16.98;;;;;;;;;;5033278;28;20433;-72
2022/11/21 04:28:07;;;;;;;30.50;17.65;;;;;;;;;;5035929;28;20025;-75
2022/11/21 04:30:33;;;;;;;30.38;17.40;;;;;;;;;;5041173;28;20025;-73
2022/11/21 04:32:59;;;;;;;27.35;16.55;;;;;;;;;;5041763;28;20470;-73
2022/11/21 04:35:26;;;;;;;30.70;16.60;;;;;;;;;;5043406;28;20026;-74
2022/11/21 04:37:52;;;;;;;30.70;17.58;;;;;;;;;;5050840;28;20498;-74
2022/11/21 04:40:18;;;;;;;31.88;18.17;;;;;;;;;;5045924;28;20030;-73
2022/11/21 04:42:45;;;;;;;31.08;18.20;;;;;;;;;;5032702;28;20179;-73
2022/11/21 04:45:12;;;;;;;32.75;18.42;;;;;;;;;;5031544;28;20036;-70
2022/11/21 04:47:38;;;;;;;31.60;18.88;;;;;;;;;;5037552;28;20382;-71
2022/11/21 04:50:04;;;;;;;30.02;17.38;;;;;;;;;;5039715;28;20029;-70
2022/11/21 04:52:30;;;;;;;34.33;18.75;;;;;;;;;;5040342;28;20040;-70
2022/11/21 04:54:56;;;;;;;32.67;19.23;;;;;;;;;;5050686;28;20025;-73
2022/11/21 04:57:23;;;;;;;31.23;18.52;;;;;;;;;;5051036;28;20083;-71
2022/11/21 04:59:49;;;;;;;35.60;19.33;;;;;;;;;;5054936;28;20036;-75
2022/11/21 05:02:15;;;;;;;30.70;18.75;;;;;;;;;;5052327;28;20021;-70
2022/11/21 05:04:41;;;;;;;32.13;18.77;;;;;;;;;;5045482;28;20045;-71
2022/11/21 05:07:07;;;;;;;29.95;18.45;;;;;;;;;;5033302;28;20029;-69
2022/11/21 05:09:33;;;;;;;30.83;18.77;;;;;;;;;;5033389;28;20036;-71
2022/11/21 05:14:43;;;;;;;31.40;19.30;;;;;;;;;;5034589;28;20037;-71
2022/11/21 05:17:09;;;;;;;34.08;18.95;;;;;;;;;;5033176;28;20022;-71
2022/11/21 05:19:35;;;;;;;33.28;19.30;;;;;;;;;;5033562;28;20116;-71
2022/11/21 05:22:01;;;;;;;31.92;19.73;;;;;;;;;;5032653;28;20185;-71
2022/11/21 05:24:27;;;;;;;31.35;18.88;;;;;;;;;;5033054;28;20021;-71
2022/11/21 05:26:54;;;;;;;34.05;19.35;;;;;;;;;;5032550;28;20546;-72
2022/11/21 05:29:20;;;;;;;30.83;19.10;;;;;;;;;;5032859;28;20087;-73
2022/11/21 05:31:46;;;;;;;34.17;18.50;;;;;;;;;;5033245;28;20083;-71
2022/11/21 05:34:12;;;;;;;31.45;19.23;;;;;;;;;;5033685;28;20029;-72
2022/11/21 05:36:38;;;;;;;32.10;18.63;;;;;;;;;;5034210;28;20029;-72
2022/11/21 05:39:04;;;;;;;29.88;18.02;;;;;;;;;;5034696;28;20037;-72
2022/11/21 05:41:30;;;;;;;27.17;17.25;;;;;;;;;;5034213;28;20083;-71
2022/11/21 05:43:56;;;;;;;34.88;20.17;;;;;;;;;;5033384;28;20116;-73
2022/11/21 05:46:23;;;;;;;33.17;19.77;;;;;;;;;;5033248;28;20110;-73
2022/11/21 05:48:50;;;;;;;31.40;18.50;;;;;;;;;;5033149;28;20478;-73
2022/11/21 05:51:16;;;;;;;32.83;19.60;;;;;;;;;;5032273;28;20507;-72
2022/11/21 05:53:42;;;;;;;33.47;19.23;;;;;;;;;;5031847;28;20048;-72
2022/11/21 05:56:10;;;;;;;33.35;20.63;;;;;;;;;;5031070;28;20017;-73
2022/11/21 05:58:35;;;;;;;34.47;20.52;;;;;;;;;;5031845;28;20108;-73
2022/11/21 06:01:02;;;;;;;35.08;20.33;;;;;;;;;;5031580;28;20057;-71
2022/11/21 06:03:30;;;;;;;34.85;20.20;;;;;;;;;;5032175;28;20060;-72
2022/11/21 06:06:09;;;;;;;35.63;22.23;;;;;;;;;;5031662;28;20014;-73
2022/11/21 06:08:40;;;;;;;39.42;21.60;;;;;;;;;;5031681;28;20033;-72
2022/11/21 06:11:07;;;;;;;34.97;21.05;;;;;;;;;;5032829;28;20474;-72
2022/11/21 06:13:33;;;;;;;35.72;21.23;;;;;;;;;;5032001;28;20029;-72
2022/11/21 06:16:04;;;;;;;36.53;21.88;;;;;;;;;;5033361;28;20029;-73
2022/11/21 06:18:31;;;;;;;43.65;23.70;;;;;;;;;;5031931;28;20026;-71
2022/11/21 06:21:04;;;;;;;39.17;22.92;;;;;;;;;;5033376;28;20105;-72
2022/11/21 06:23:30;;;;;;;43.78;23.38;;;;;;;;;;5031330;28;20021;-71
2022/11/21 06:25:57;;;;;;;44.10;24.58;;;;;;;;;;5034716;28;20030;-73
2022/11/21 06:28:23;;;;;;;44.17;24.48;;;;;;;;;;5037100;28;20041;-77
2022/11/21 06:30:50;;;;;;;45.58;24.25;;;;;;;;;;5039771;28;20120;-71
2022/11/21 06:33:17;;;;;;;42.42;23.73;;;;;;;;;;5035966;28;20475;-73
2022/11/21 06:35:43;;;;;;;41.05;23.42;;;;;;;;;;5035226;28;20059;-73
2022/11/21 06:38:11;;;;;;;40.22;23.55;;;;;;;;;;5035256;28;20100;-72
2022/11/21 06:40:37;;;;;;;43.05;24.52;;;;;;;;;;5037752;28;20363;-74
2022/11/21 06:43:03;;;;;;;41.17;23.55;;;;;;;;;;5035890;28;20224;-72
2022/11/21 06:45:29;;;;;;;42.33;23.65;;;;;;;;;;5034008;28;20021;-73
2022/11/21 06:47:55;;;;;;;41.67;23.02;;;;;;;;;;5040775;28;20108;-72
2022/11/21 06:50:21;;;;;;;44.60;24.02;;;;;;;;;;5043811;28;20030;-73
2022/11/21 06:52:47;;;;;;;58.63;26.33;;;;;;;;;;5042804;28;20051;-72
2022/11/21 06:55:13;;;;;;;59.38;28.33;;;;;;;;;;5039951;28;20033;-72
2022/11/21 06:57:39;;;;;;;55.92;26.98;;;;;;;;;;5044660;28;20098;-72
2022/11/21 07:00:06;;;;;;;72.30;34.03;;;;;;;;;;5038914;28;20482;-73
2022/11/21 07:02:32;;;;;;;60.72;27.48;;;;;;;;;;5038236;28;20041;-72
2022/11/21 07:04:58;;;;;;;52.72;25.92;;;;;;;;;;5044848;28;20229;-72
2022/11/21 07:07:24;;;;;;;54.08;25.98;;;;;;;;;;5051682;28;20100;-74
2022/11/21 07:09:50;;;;;;;44.15;24.42;;;;;;;;;;5041776;28;20029;-72
2022/11/21 07:13:20;;;;;;;46.40;24.30;;;;;;;;;;5048433;28;20052;-72
2022/11/21 07:15:11;;;;;;;52.22;26.83;;;;;;;;;;5047649;28;20060;-72
2022/11/21 07:17:37;;;;;;;45.15;24.67;;;;;;;;;;5037439;28;20025;-73
2022/11/21 07:20:03;;;;;;;39.33;23.00;;;;;;;;;;5038807;28;20036;-72
2022/11/21 07:22:29;;;;;;;38.13;23.00;;;;;;;;;;5039653;28;20037;-71
2022/11/21 07:24:55;;;;;;;39.70;23.27;;;;;;;;;;5034918;28;20033;-72
2022/11/21 07:27:20;;;;;;;39.70;21.73;;;;;;;;;;5033999;28;20022;-72
2022/11/21 07:29:46;;;;;;;43.97;24.35;;;;;;;;;;5035217;28;20033;-73
2022/11/21 07:32:12;;;;;;;43.88;24.17;;;;;;;;;;5037538;28;20036;-72
2022/11/21 07:34:38;;;;;;;39.15;23.20;;;;;;;;;;5035038;28;20290;-72
2022/11/21 07:37:04;;;;;;;40.60;22.17;;;;;;;;;;5032336;28;20474;-71
2022/11/21 07:39:30;;;;;;;37.13;21.88;;;;;;;;;;5037374;28;20033;-71
2022/11/21 07:41:56;;;;;;;39.92;22.48;;;;;;;;;;5034702;28;20032;-72
2022/11/21 07:44:22;;;;;;;48.42;24.98;;;;;;;;;;5034990;28;20100;-73
2022/11/21 07:46:48;;;;;;;47.65;23.27;;;;;;;;;;5034748;28;20086;-73
2022/11/21 07:49:14;;;;;;;43.83;23.35;;;;;;;;;;5035678;28;20044;-71
2022/11/21 07:51:40;;;;;;;47.70;22.30;;;;;;;;;;5036112;28;20170;-73
2022/11/21 07:54:06;;;;;;;35.70;20.88;;;;;;;;;;5038732;28;20087;-73
2022/11/21 07:56:32;;;;;;;43.20;22.52;;;;;;;;;;5037122;28;20498;-74
2022/11/21 07:58:58;;;;;;;43.50;21.98;;;;;;;;;;5035257;28;20072;-73
2022/11/21 08:01:24;;;;;;;47.03;22.08;;;;;;;;;;5034882;28;20021;-74
2022/11/21 08:03:50;;;;;;;40.10;22.23;;;;;;;;;;5048859;28;20077;-71
2022/11/21 08:06:16;;;;;;;40.72;22.35;;;;;;;;;;5050482;28;20022;-72
2022/11/21 08:08:42;;;;;;;42.03;22.38;;;;;;;;;;5034365;28;20033;-72
2022/11/21 08:11:08;;;;;;;139.15;50.00;;;;;;;;;;5036473;28;20492;-75
2022/11/21 08:13:34;;;;;;;39.78;21.38;;;;;;;;;;5035089;28;20104;-74
2022/11/21 08:16:02;;;;;;;39.25;22.20;;;;;;;;;;5035002;28;20453;-74
2022/11/21 08:18:28;;;;;;;32.75;19.85;;;;;;;;;;5035211;28;20021;-74
2022/11/21 08:20:54;;;;;;;36.75;21.33;;;;;;;;;;5034479;28;20029;-74
2022/11/21 08:23:20;;;;;;;38.72;22.13;;;;;;;;;;5040080;28;20093;-72
2022/11/21 08:25:46;;;;;;;35.78;21.02;;;;;;;;;;5036671;28;20115;-72
2022/11/21 08:28:13;;;;;;;40.90;22.73;;;;;;;;;;5032456;28;20067;-72
2022/11/21 08:30:39;;;;;;;39.05;20.83;;;;;;;;;;5033466;28;20021;-71
2022/11/21 08:33:05;;;;;;;39.85;19.27;;;;;;;;;;5032571;28;20463;-72
2022/11/21 08:35:32;;;;;;;33.40;17.90;;;;;;;;;;5031247;28;20057;-71
2022/11/21 08:37:58;;;;;;;44.53;18.20;;;;;;;;;;5035445;28;20029;-72
2022/11/21 08:40:25;;;;;;;29.35;16.65;;;;;;;;;;5034491;28;20029;-73
2022/11/21 08:43:01;;;;;;;32.65;17.30;;;;;;;;;;5034280;28;20083;-72
2022/11/21 08:45:27;;;;;;;26.80;15.75;;;;;;;;;;5030014;28;20056;-71
2022/11/21 08:47:54;;;;;;;29.27;17.15;;;;;;;;;;5033898;28;20025;-73
2022/11/21 08:50:20;;;;;;;32.85;16.80;;;;;;;;;;5034734;28;20029;-72
2022/11/21 08:52:46;;;;;;;27.10;14.93;;;;;;;;;;5037566;28;20061;-73
2022/11/21 08:55:12;;;;;;;22.40;14.30;;;;;;;;;;5036777;28;20486;-71
2022/11/21 08:57:39;;;;;;;23.02;14.52;;;;;;;;;;5032928;28;20032;-75
2022/11/21 09:00:05;;;;;;;22.77;14.75;;;;;;;;;;5034222;28;20033;-73
2022/11/21 09:02:31;;;;;;;26.30;14.60;;;;;;;;;;5033886;28;20021;-71
2022/11/21 09:04:58;;;;;;;26.75;15.88;;;;;;;;;;5033073;28;20108;-72
2022/11/21 09:07:24;;;;;;;28.42;16.08;;;;;;;;;;5038417;28;20029;-71
2022/11/21 09:09:50;;;;;;;23.35;14.63;;;;;;;;;;5049062;28;20549;-72
2022/11/21 09:12:16;;;;;;;25.90;14.18;;;;;;;;;;5047776;28;20029;-71
2022/11/21 09:20:11;;;;;;;24.38;15.75;;;;;;;;;;5037781;28;20143;-71
2022/11/21 09:22:37;;;;;;;24.92;16.02;;;;;;;;;;5032044;28;20697;-72
2022/11/21 09:25:03;;;;;;;26.45;16.70;;;;;;;;;;5034294;28;20467;-71
2022/11/21 09:27:29;;;;;;;23.15;15.85;;;;;;;;;;5032134;28;20450;-74
2022/11/21 09:29:55;;;;;;;26.45;16.38;;;;;;;;;;5035219;28;20526;-71
2022/11/21 09:32:22;;;;;;;29.77;18.08;;;;;;;;;;5032811;28;20112;-72
2022/11/21 09:34:48;;;;;;;27.80;18.08;;;;;;;;;;5032694;28;20057;-72
2022/11/21 09:37:14;;;;;;;29.23;18.65;;;;;;;;;;5033324;28;20030;-73
2022/11/21 09:39:40;;;;;;;28.95;18.42;;;;;;;;;;5032377;28;20090;-73
2022/11/21 09:42:12;;;;;;;28.75;18.90;;;;;;;;;;5032200;28;20474;-72
2022/11/21 09:44:48;;;;;;;29.83;17.77;;;;;;;;;;5032370;28;20486;-71
2022/11/21 09:47:27;;;;;;;31.08;19.67;;;;;;;;;;5031411;28;20021;-72
2022/11/21 09:49:56;;;;;;;32.17;19.48;;;;;;;;;;5031976;28;20035;-72
2022/11/21 09:52:23;;;;;;;28.58;18.77;;;;;;;;;;5032262;28;20068;-72
2022/11/21 09:54:52;;;;;;;32.10;19.73;;;;;;;;;;5032111;28;20044;-72
2022/11/21 09:57:21;;;;;;;31.30;19.02;;;;;;;;;;5031520;28;20021;-72
2022/11/21 09:59:47;;;;;;;28.95;18.08;;;;;;;;;;5034314;28;20068;-71
2022/11/21 10:02:14;;;;;;;31.45;18.58;;;;;;;;;;5035898;28;20065;-72
2022/11/21 10:04:40;;;;;;;32.72;19.45;;;;;;;;;;5035805;28;20494;-72
2022/11/21 10:07:09;;;;;;;31.25;19.13;;;;;;;;;;5035227;28;20025;-72
2022/11/21 10:09:43;;;;;;;29.88;19.05;;;;;;;;;;5037717;28;20033;-73
2022/11/21 10:12:36;;;;;;;28.52;18.27;;;;;;;;;;5036588;28;20026;-73
2022/11/21 10:15:15;;;;;;;30.63;19.52;;;;;;;;;;5036629;28;20431;-75
2022/11/21 10:17:47;;;;;;;36.22;20.25;;;;;;;;;;5038018;28;20032;-75
2022/11/21 10:20:16;;;;;;;33.90;20.48;;;;;;;;;;5039506;28;20029;-74
2022/11/21 10:22:58;;;;;;;34.90;20.52;;;;;;;;;;5039214;28;20018;-74
2022/11/21 10:25:26;;;;;;;34.67;21.08;;;;;;;;;;5036103;28;20026;-74
2022/11/21 10:27:55;;;;;;;34.92;20.90;;;;;;;;;;5035808;28;20029;-73
2022/11/21 10:30:21;;;;;;;34.85;19.85;;;;;;;;;;5036533;28;20271;-74
2022/11/21 10:32:50;;;;;;;31.40;19.33;;;;;;;;;;5035485;28;20504;-75
2022/11/21 10:35:21;;;;;;;34.33;20.67;;;;;;;;;;5035908;28;20332;-75
2022/11/21 10:37:49;;;;;;;33.75;20.08;;;;;;;;;;5036328;28;20021;-76
2022/11/21 10:40:20;;;;;;;39.67;20.20;;;;;;;;;;5036824;28;20028;-73
2022/11/21 10:42:57;;;;;;;36.05;19.65;;;;;;;;;;5038315;28;20061;-72
2022/11/21 10:45:23;;;;;;;31.50;19.23;;;;;;;;;;5040495;28;20076;-73
2022/11/21 10:47:50;;;;;;;33.20;18.98;;;;;;;;;;5039809;28;20037;-72
2022/11/21 10:50:25;;;;;;;34.47;19.95;;;;;;;;;;5037590;28;20029;-73
2022/11/21 10:54:31;;;;;;;35.47;19.55;;;;;;;;;;5035900;28;20025;-76
2022/11/21 10:56:05;;;;;;;34.72;19.42;;;;;;;;;;5034595;28;20471;-72
2022/11/21 10:58:51;;;;;;;32.50;20.02;;;;;;;;;;5038024;28;20040;-74
2022/11/21 11:01:26;;;;;;;33.20;19.08;;;;;;;;;;5035274;28;20067;-73
2022/11/21 11:04:10;;;;;;;34.70;19.63;;;;;;;;;;5036601;28;20021;-73
2022/11/21 11:06:37;;;;;;;35.15;19.55;;;;;;;;;;5033658;28;20022;-74
2022/11/21 11:09:03;;;;;;;32.80;18.80;;;;;;;;;;5034582;28;20536;-74
2022/11/21 11:11:30;;;;;;;36.53;20.27;;;;;;;;;;5033979;28;20129;-73
2022/11/21 11:14:12;;;;;;;33.08;18.35;;;;;;;;;;5037977;28;20022;-74
2022/11/21 11:16:42;;;;;;;32.67;18.58;;;;;;;;;;5038539;28;20041;-75
2022/11/21 11:19:14;;;;;;;30.40;18.65;;;;;;;;;;5034949;28;20029;-74
2022/11/21 11:21:39;;;;;;;29.65;17.80;;;;;;;;;;5034655;28;20034;-74
2022/11/21 11:24:26;;;;;;;29.60;17.52;;;;;;;;;;5034890;28;20338;-75
2022/11/21 11:26:55;;;;;;;31.00;17.55;;;;;;;;;;5035190;28;20032;-74
2022/11/21 11:29:26;;;;;;;30.55;18.10;;;;;;;;;;5045712;28;20025;-76
2022/11/21 11:31:58;;;;;;;31.42;18.80;;;;;;;;;;5037307;28;20053;-72
2022/11/21 11:34:26;;;;;;;32.13;16.30;;;;;;;;;;5037278;28;20041;-75
2022/11/21 11:36:57;;;;;;;26.67;15.63;;;;;;;;;;5035359;28;20545;-74
2022/11/21 11:39:34;;;;;;;25.33;15.43;;;;;;;;;;5035212;28;20026;-74
2022/11/21 11:48:04;;;;;;;24.98;14.52;;;;;;;;;;5038219;28;20056;-75
2022/11/21 11:50:30;;;;;;;22.50;13.38;;;;;;;;;;5034458;28;20022;-75
2022/11/21 11:53:15;;;;;;;26.48;15.05;;;;;;;;;;5032940;28;20027;-75
2022/11/21 11:56:00;;;;;;;21.92;13.73;;;;;;;;;;5034193;28;20033;-75
2022/11/21 11:58:33;;;;;;;23.30;13.90;;;;;;;;;;5034952;28;20040;-75
2022/11/21 12:01:10;;;;;;;20.10;12.52;;;;;;;;;;5034726;28;20483;-76
2022/11/21 12:03:42;;;;;;;21.77;13.77;;;;;;;;;;5038769;28;20132;-76
2022/11/21 12:06:16;;;;;;;21.80;13.60;;;;;;;;;;5037520;28;20483;-76
2022/11/21 12:08:46;;;;;;;21.63;13.23;;;;;;;;;;5036627;28;20021;-76
2022/11/21 12:14:11;;;;;;;20.25;12.52;;;;;;;;;;5039059;28;20513;-76
2022/11/21 12:16:39;;;;;;;42.65;22.60;;;;;;;;;;5039313;28;20067;-75
2022/11/21 12:19:12;;;;;;;19.50;11.80;;;;;;;;;;5036034;28;20079;-75
2022/11/21 12:21:38;;;;;;;33.58;17.95;;;;;;;;;;5034972;28;20025;-74
2022/11/21 12:24:04;;;;;;;16.50;10.88;;;;;;;;;;5039052;28;20043;-75
2022/11/21 12:26:33;;;;;;;15.80;10.60;;;;;;;;;;5032744;28;20087;-73
2022/11/21 12:28:59;;;;;;;15.65;10.30;;;;;;;;;;5036421;28;20051;-73
2022/11/21 12:31:34;;;;;;;17.75;11.48;;;;;;;;;;5034392;28;20053;-75
2022/11/21 12:34:18;;;;;;;16.95;10.07;;;;;;;;;;5030835;28;20025;-75
2022/11/21 12:36:56;;;;;;;15.35;10.52;;;;;;;;;;5036466;28;20022;-74
2022/11/21 12:39:45;;;;;;;14.45;9.40;;;;;;;;;;5048225;28;20394;-74
2022/11/21 12:44:59;;;;;;;14.10;9.63;;;;;;;;;;5031106;28;20033;-76
2022/11/21 12:54:28;;;;;;;16.70;9.95;;;;;;;;;;5033086;28;20021;-74
2022/11/21 12:56:23;;;;;;;15.65;9.68;;;;;;;;;;5030762;28;20421;-75
2022/11/21 12:58:51;;;;;;;14.65;9.15;;;;;;;;;;5034444;28;20037;-76
2022/11/21 13:01:35;;;;;;;12.30;8.40;;;;;;;;;;5034449;28;20038;-80
2022/11/21 13:04:05;;;;;;;14.70;8.90;;;;;;;;;;5036449;28;20466;-74
2022/11/21 13:06:33;;;;;;;13.30;9.05;;;;;;;;;;5032446;28;20025;-74
2022/11/21 13:09:01;;;;;;;16.75;10.95;;;;;;;;;;5032857;28;20025;-75
2022/11/21 13:14:22;;;;;;;;;;;;;;;;;;5032831;28;20084;-75
2022/11/21 13:17:02;;;;;;;11.27;7.93;;;;;;;;;;5032380;28;19909;-75
2022/11/21 13:19:46;;;;;;;380.90;136.95;;;;;;;;;;5032464;28;20040;-75
2022/11/21 13:22:30;;;;;;;32.92;16.75;;;;;;;;;;5034100;28;20029;-75
2022/11/21 13:24:57;;;;;;;14.93;9.38;;;;;;;;;;5032357;28;20021;-74
2022/11/21 13:27:25;;;;;;;15.02;9.07;;;;;;;;;;5031936;28;20022;-74
2022/11/21 13:30:06;;;;;;;14.05;9.32;;;;;;;;;;5032853;28;20056;-75
2022/11/21 13:32:52;;;;;;;14.07;9.32;;;;;;;;;;5033176;28;20025;-75
2022/11/21 13:35:20;;;;;;;15.07;9.20;;;;;;;;;;5030195;28;20068;-74
2022/11/21 13:37:50;;;;;;;17.90;10.30;;;;;;;;;;5032202;28;20029;-75
2022/11/21 13:40:30;;;;;;;21.80;11.27;;;;;;;;;;5032037;28;20033;-75
2022/11/21 13:43:09;;;;;;;17.05;10.40;;;;;;;;;;5032486;28;20032;-74
2022/11/21 13:45:42;;;;;;;15.98;10.65;;;;;;;;;;5033791;28;20079;-75
2022/11/21 13:48:27;;;;;;;14.73;8.32;;;;;;;;;;5032863;28;20014;-74
2022/11/21 13:50:59;;;;;;;15.40;9.32;;;;;;;;;;5035874;28;20033;-73
2022/11/21 13:53:36;;;;;;;16.60;9.52;;;;;;;;;;5033778;28;20033;-74
2022/11/21 13:56:05;;;;;;;15.75;9.57;;;;;;;;;;5032027;28;20029;-76
2022/11/21 13:58:46;;;;;;;15.07;10.00;;;;;;;;;;5033617;28;20034;-74
2022/11/21 14:01:12;;;;;;;17.77;9.48;;;;;;;;;;5035432;28;20025;-73
2022/11/21 14:03:38;;;;;;;22.42;9.63;;;;;;;;;;5033712;28;20029;-73
2022/11/21 14:06:22;;;;;;;18.23;9.57;;;;;;;;;;5032054;28;20066;-74
2022/11/21 14:09:08;;;;;;;14.70;9.57;;;;;;;;;;5041066;28;20029;-74
2022/11/21 14:11:47;;;;;;;17.83;11.52;;;;;;;;;;5033241;28;20104;-75
2022/11/21 14:14:22;;;;;;;25.20;12.57;;;;;;;;;;5035177;28;20108;-77
2022/11/21 14:16:52;;;;;;;28.80;13.88;;;;;;;;;;5040531;28;20034;-79
2022/11/21 14:19:19;;;;;;;23.02;11.27;;;;;;;;;;5047838;28;20026;-79
2022/11/21 14:21:46;;;;;;;17.08;9.57;;;;;;;;;;5046151;28;20029;-82
2022/11/21 14:24:14;;;;;;;18.25;9.68;;;;;;;;;;5052274;28;20038;-80
2022/11/21 14:26:43;;;;;;;17.55;9.25;;;;;;;;;;5047697;28;20033;-81
2022/11/21 14:29:25;;;;;;;14.02;8.15;;;;;;;;;;5039045;28;20041;-81
2022/11/21 14:31:51;;;;;;;16.80;8.73;;;;;;;;;;5034944;28;20028;-79
2022/11/21 14:34:31;;;;;;;19.08;8.43;;;;;;;;;;5034025;28;20036;-77
2022/11/21 14:36:59;;;;;;;13.40;7.82;;;;;;;;;;5030365;28;20030;-76
2022/11/21 14:39:26;;;;;;;18.60;8.77;;;;;;;;;;5031857;28;20031;-76
2022/11/21 14:41:54;;;;;;;15.23;8.85;;;;;;;;;;5032621;28;20025;-75
2022/11/21 14:44:20;;;;;;;16.20;8.20;;;;;;;;;;5036967;28;20029;-76
2022/11/21 14:46:47;;;;;;;16.20;9.35;;;;;;;;;;5037236;28;20080;-75
2022/11/21 14:49:16;;;;;;;15.60;8.48;;;;;;;;;;5035456;28;20125;-74
2022/11/21 14:51:48;;;;;;;17.42;8.98;;;;;;;;;;5033400;28;20029;-74
2022/11/21 14:54:16;;;;;;;19.40;10.35;;;;;;;;;;5033633;28;20029;-75
2022/11/21 14:56:42;;;;;;;22.15;10.02;;;;;;;;;;5035232;28;20151;-75